Aérodrome :
LOGIN :

S'inscrire | Disclaimer

   EN    FR    IT 

 










Légende :    VFR   VFR Marginal   IFR   IFR Intensif   IFR Très Intensif
Visi : 
Plafond : 
>= 8 km
>= 3000ft
5 à 8 km
1000 à 3000 ft
1500m à 5 km
500 à 1000 ft
800 à 1500m
200 à 500 ft
< 800m
< 200 ft
Symboles :   Orages  Brouillard  Fortes neiges  Fortes précipitations  Vent > 20 kt
SIGMETs :   Divers  Orages  Givrage  Turbulence  Onde Orograph.  Cendres Volcan.






- Altitude de l'aérodrome : 412 ft
- Code IATA : KGS


LGKO - Ippokratis

DERNIER METAR :
  • 072320Z 03005KT 9999 FEW020 13/10 Q1014

METARs EXPIRÉS :
  • 072250Z 03006KT 9999 FEW020 13/10 Q1014
  • 072220Z 02006KT 9999 FEW020 13/10 Q1014
  • 072150Z 02006KT 9999 FEW020 13/10 Q1014
  • 072120Z 02007KT 9999 FEW020 13/10 Q1015
  • 072050Z 36005KT 9999 FEW020 13/10 Q1015

TAF TAF LGKO
Valide du 08 à 00h jusqu'au 09 à 00h UTC


072300Z 0800/0824 35012KT 9999 FEW020 BKN050
PROB30
TEMPO 0815/0824 5000 RA SCT015 BKN025



MET'MAP, la Météo Aéronautique d'un coup d'oeil ! - Copyright ORBIFLY Décembre 2007 - Disclaimer

ORBIFLY MET'MAP TEAM :

Programmation & Développement : Alexandra Zaïnal
Sur une idée originale de : Baudouin d'Aumeries
Assistance à la programmation : Marc-Olivier Méhu
Soutien technique & logistique : Manuel Goepfert

Contact : metmap@orbifly.com




SOURCES & CREDITS :

   NOAA